Time,TemperatureF,DewpointF,PressureIn,WindDirection,WindDirectionDegrees,WindSpeedMPH,WindSpeedGustMPH,Humidity,HourlyPrecipIn,Conditions,Clouds,dailyrainin,SoftwareType,DateUTC
2014-04-20 00:13:00,83.1,49.0,29.94,West,264,8.0,10.0,30,0.00,,,0.00,weatherlink.com 1.10,2014-04-19 21:13:00,
2014-04-20 00:28:00,82.6,49.0,29.93,WNW,289,6.0,12.0,31,0.00,,,0.00,weatherlink.com 1.10,2014-04-19 21:28:00,
2014-04-20 00:43:00,82.2,50.0,29.92,West,272,6.0,13.0,32,0.00,,,0.00,weatherlink.com 1.10,2014-04-19 21:43:00,
2014-04-20 00:58:00,82.0,50.0,29.92,West,280,4.0,11.0,33,0.00,,,0.00,weatherlink.com 1.10,2014-04-19 21:58:00,
2014-04-20 01:13:00,81.7,51.0,29.91,WSW,253,5.0,9.0,35,0.00,,,0.00,weatherlink.com 1.10,2014-04-19 22:13:00,
2014-04-20 01:29:00,81.9,52.0,29.91,WSW,251,6.0,13.0,35,0.00,,,0.00,weatherlink.com 1.10,2014-04-19 22:29:00,
2014-04-20 01:44:00,81.9,53.0,29.91,SW,226,8.0,10.0,37,0.00,,,0.00,weatherlink.com 1.10,2014-04-19 22:44:00,
2014-04-20 01:59:00,81.8,52.0,29.90,WSW,254,3.0,11.0,36,0.00,,,0.00,weatherlink.com 1.10,2014-04-19 22:59:00,
2014-04-20 02:14:00,81.6,51.0,29.90,WSW,251,6.0,13.0,35,0.00,,,0.00,weatherlink.com 1.10,2014-04-19 23:14:00,
2014-04-20 02:29:00,81.2,53.0,29.90,WSW,251,9.0,10.0,38,0.00,,,0.00,weatherlink.com 1.10,2014-04-19 23:29:00,
2014-04-20 02:44:00,81.1,52.0,29.90,West,266,1.0,13.0,36,0.00,,,0.00,weatherlink.com 1.10,2014-04-19 23:44:00,
2014-04-20 02:59:00,81.1,51.0,29.90,West,275,5.0,13.0,35,0.00,,,0.00,weatherlink.com 1.10,2014-04-19 23:59:00,
2014-04-20 03:14:00,81.0,50.0,29.90,WNW,282,5.0,13.0,34,0.00,,,0.00,weatherlink.com 1.10,2014-04-20 00:14:00,
2014-04-20 03:29:00,80.8,50.0,29.90,WSW,258,5.0,10.0,34,0.00,,,0.00,weatherlink.com 1.10,2014-04-20 00:29:00,
2014-04-20 03:44:00,80.8,49.0,29.90,NW,311,2.0,12.0,33,0.00,,,0.00,weatherlink.com 1.10,2014-04-20 00:44:00,
2014-04-20 03:59:00,80.6,50.0,29.90,WSW,242,6.0,14.0,34,0.00,,,0.00,weatherlink.com 1.10,2014-04-20 00:59:00,
2014-04-20 04:14:00,80.2,50.0,29.89,WSW,256,4.0,13.0,35,0.00,,,0.00,weatherlink.com 1.10,2014-04-20 01:14:00,
2014-04-20 04:29:00,79.9,50.0,29.89,West,263,1.0,10.0,35,0.00,,,0.00,weatherlink.com 1.10,2014-04-20 01:29:00,
2014-04-20 04:44:00,79.6,50.0,29.89,WSW,258,7.0,13.0,35,0.00,,,0.00,weatherlink.com 1.10,2014-04-20 01:44:00,
2014-04-20 04:59:00,79.5,50.0,29.89,West,264,3.0,12.0,36,0.00,,,0.00,weatherlink.com 1.10,2014-04-20 01:59:00,
2014-04-20 05:14:00,79.6,50.0,29.89,WSW,247,6.0,10.0,36,0.00,,,0.00,weatherlink.com 1.10,2014-04-20 02:14:00,
2014-04-20 05:29:00,79.8,50.0,29.89,West,264,7.0,12.0,35,0.00,,,0.00,weatherlink.com 1.10,2014-04-20 02:29:00,
2014-04-20 05:44:00,79.9,49.0,29.89,West,264,1.0,11.0,34,0.00,,,0.00,weatherlink.com 1.10,2014-04-20 02:44:00,
2014-04-20 05:59:00,79.9,49.0,29.89,West,262,5.0,12.0,34,0.00,,,0.00,weatherlink.com 1.10,2014-04-20 02:59:00,
2014-04-20 06:14:00,79.8,51.0,29.89,West,272,3.0,13.0,36,0.00,,,0.00,weatherlink.com 1.10,2014-04-20 03:14:00,
2014-04-20 06:29:00,79.8,50.0,29.89,West,273,4.0,13.0,35,0.00,,,0.00,weatherlink.com 1.10,2014-04-20 03:29:00,
2014-04-20 06:44:00,80.1,51.0,29.89,SW,236,2.0,14.0,36,0.00,,,0.00,weatherlink.com 1.10,2014-04-20 03:44:00,
2014-04-20 06:59:00,80.2,52.0,29.89,SW,233,9.0,15.0,37,0.00,,,0.00,weatherlink.com 1.10,2014-04-20 03:59:00,
2014-04-20 07:14:00,80.9,51.0,29.89,WSW,253,13.0,16.0,35,0.00,,,0.00,weatherlink.com 1.10,2014-04-20 04:14:00,
2014-04-20 07:29:00,81.3,52.0,29.89,West,259,10.0,15.0,36,0.00,,,0.00,weatherlink.com 1.10,2014-04-20 04:29:00,
2014-04-20 07:44:00,81.7,51.0,29.89,WSW,247,10.0,11.0,35,0.00,,,0.00,weatherlink.com 1.10,2014-04-20 04:44:00,
2014-04-20 07:59:00,82.4,51.0,29.88,West,260,6.0,13.0,33,0.00,,,0.00,weatherlink.com 1.10,2014-04-20 04:59:00,
2014-04-20 08:14:00,83.0,52.0,29.88,West,264,9.0,14.0,34,0.00,,,0.00,weatherlink.com 1.10,2014-04-20 05:14:00,
2014-04-20 08:29:00,84.6,52.0,29.88,West,260,2.0,12.0,33,0.00,,,0.00,weatherlink.com 1.10,2014-04-20 05:29:00,
2014-04-20 08:44:00,86.1,52.0,29.89,WNW,283,6.0,13.0,31,0.00,,,0.00,weatherlink.com 1.10,2014-04-20 05:44:00,
2014-04-20 08:59:00,87.2,53.0,29.89,West,278,9.0,16.0,31,0.00,,,0.00,weatherlink.com 1.10,2014-04-20 05:59:00,
2014-04-20 09:14:00,88.6,52.0,29.88,West,280,12.0,16.0,28,0.00,,,0.00,weatherlink.com 1.10,2014-04-20 06:14:00,
2014-04-20 09:29:00,89.6,50.0,29.88,West,274,5.0,16.0,26,0.00,,,0.00,weatherlink.com 1.10,2014-04-20 06:29:00,
2014-04-20 09:44:00,91.2,47.0,29.88,WNW,300,10.0,16.0,22,0.00,,,0.00,weatherlink.com 1.10,2014-04-20 06:44:00,
2014-04-20 09:59:00,91.6,49.0,29.88,WNW,294,5.0,14.0,23,0.00,,,0.00,weatherlink.com 1.10,2014-04-20 06:59:00,
2014-04-20 10:14:00,92.2,48.0,29.88,WNW,295,6.0,17.0,22,0.00,,,0.00,weatherlink.com 1.10,2014-04-20 07:14:00,
2014-04-20 10:30:00,92.7,49.0,29.87,NW,318,7.0,18.0,22,0.00,,,0.00,weatherlink.com 1.10,2014-04-20 07:30:00,
2014-04-20 10:45:00,92.8,46.0,29.87,NW,317,10.0,20.0,20,0.00,,,0.00,weatherlink.com 1.10,2014-04-20 07:45:00,
2014-04-20 11:00:00,93.7,46.0,29.87,NW,308,9.0,17.0,19,0.00,,,0.00,weatherlink.com 1.10,2014-04-20 08:00:00,
2014-04-20 11:15:00,94.4,43.0,29.86,WNW,299,13.0,15.0,17,0.00,,,0.00,weatherlink.com 1.10,2014-04-20 08:15:00,
2014-04-20 11:30:00,95.3,42.0,29.86,West,274,5.0,17.0,16,0.00,,,0.00,weatherlink.com 1.10,2014-04-20 08:30:00,
2014-04-20 11:45:00,95.9,41.0,29.85,WNW,293,7.0,14.0,15,0.00,,,0.00,weatherlink.com 1.10,2014-04-20 08:45:00,
2014-04-20 12:00:00,96.3,42.0,29.84,WNW,297,5.0,14.0,15,0.00,,,0.00,weatherlink.com 1.10,2014-04-20 09:00:00,
2014-04-20 12:15:00,96.5,40.0,29.84,West,276,9.0,12.0,14,0.00,,,0.00,weatherlink.com 1.10,2014-04-20 09:15:00,
2014-04-20 12:30:00,97.1,39.0,29.84,WNW,289,8.0,11.0,13,0.00,,,0.00,weatherlink.com 1.10,2014-04-20 09:30:00,
2014-04-20 12:45:00,97.6,41.0,29.84,West,274,12.0,12.0,14,0.00,,,0.00,weatherlink.com 1.10,2014-04-20 09:45:00,
2014-04-20 13:00:00,98.3,40.0,29.83,WSW,237,2.0,11.0,13,0.00,,,0.00,weatherlink.com 1.10,2014-04-20 10:00:00,
2014-04-20 13:15:00,98.0,41.0,29.83,WNW,296,6.0,15.0,14,0.00,,,0.00,weatherlink.com 1.10,2014-04-20 10:15:00,
2014-04-20 13:30:00,97.6,41.0,29.83,West,268,6.0,13.0,14,0.00,,,0.00,weatherlink.com 1.10,2014-04-20 10:30:00,
2014-04-20 13:45:00,98.2,37.0,29.82,West,276,9.0,13.0,12,0.00,,,0.00,weatherlink.com 1.10,2014-04-20 10:45:00,
2014-04-20 14:00:00,99.0,36.0,29.82,West,277,10.0,14.0,11,0.00,,,0.00,weatherlink.com 1.10,2014-04-20 11:00:00,
2014-04-20 14:15:00,99.1,36.0,29.81,WNW,290,7.0,16.0,11,0.00,,,0.00,weatherlink.com 1.10,2014-04-20 11:15:00,
2014-04-20 14:30:00,99.0,34.0,29.81,West,281,4.0,17.0,10,0.00,,,0.00,weatherlink.com 1.10,2014-04-20 11:30:00,
2014-04-20 14:45:00,98.7,38.0,29.80,NW,308,7.0,14.0,12,0.00,,,0.00,weatherlink.com 1.10,2014-04-20 11:45:00,
2014-04-20 15:00:00,98.6,38.0,29.80,WNW,285,6.0,12.0,12,0.00,,,0.00,weatherlink.com 1.10,2014-04-20 12:00:00,
2014-04-20 15:15:00,98.3,40.0,29.80,NW,314,9.0,15.0,13,0.00,,,0.00,weatherlink.com 1.10,2014-04-20 12:15:00,
2014-04-20 15:30:00,98.4,40.0,29.80,WNW,300,8.0,13.0,13,0.00,,,0.00,weatherlink.com 1.10,2014-04-20 12:30:00,
2014-04-20 15:45:00,98.6,42.0,29.79,WNW,292,7.0,11.0,14,0.00,,,0.00,weatherlink.com 1.10,2014-04-20 12:45:00,
2014-04-20 16:00:00,98.6,44.0,29.79,NW,324,9.0,13.0,15,0.00,,,0.00,weatherlink.com 1.10,2014-04-20 13:00:00,
2014-04-20 16:15:00,98.4,45.0,29.79,NW,312,7.0,12.0,16,0.00,,,0.00,weatherlink.com 1.10,2014-04-20 13:15:00,
2014-04-20 16:30:00,98.3,48.0,29.79,West,274,4.0,8.0,18,0.00,,,0.00,weatherlink.com 1.10,2014-04-20 13:30:00,
2014-04-20 16:45:00,97.9,48.0,29.79,WNW,299,11.0,11.0,18,0.00,,,0.00,weatherlink.com 1.10,2014-04-20 13:45:00,
2014-04-20 17:00:00,97.6,47.0,29.79,WNW,284,6.0,10.0,18,0.00,,,0.00,weatherlink.com 1.10,2014-04-20 14:00:00,
2014-04-20 17:15:00,97.2,50.0,29.80,West,274,3.0,10.0,20,0.00,,,0.00,weatherlink.com 1.10,2014-04-20 14:15:00,
2014-04-20 17:30:00,96.0,50.0,29.80,WNW,297,4.0,11.0,21,0.00,,,0.00,weatherlink.com 1.10,2014-04-20 14:30:00,